sensor_id;sensor_type;location;lat;lon;timestamp;pressure;altitude;pressure_sealevel;temperature;humidity
39083;BME280;24834;44.444;26.098;2024-01-10T05:06:20;102177.81;;;-0.97;
39083;BME280;24834;44.444;26.098;2024-01-10T05:12:23;102202.31;;;-1.01;
39083;BME280;24834;44.444;26.098;2024-01-10T08:05:43;102230.56;;;-0.22;
39083;BME280;24834;44.444;26.098;2024-01-10T08:11:47;102246.94;;;-0.06;
39083;BME280;24834;44.444;26.098;2024-01-10T08:17:50;102239.66;;;-0.10;
39083;BME280;24834;44.444;26.098;2024-01-10T08:23:52;102232.03;;;-0.12;
39083;BME280;24834;44.444;26.098;2024-01-10T08:29:55;102234.63;;;0.47;
39083;BME280;24834;44.444;26.098;2024-01-10T08:35:57;102236.41;;;0.46;
39083;BME280;24834;44.444;26.098;2024-01-10T08:42:04;102236.41;;;0.46;
39083;BME280;24834;44.444;26.098;2024-01-10T08:48:07;102250.16;;;0.30;
39083;BME280;24834;44.444;26.098;2024-01-10T08:54:12;102245.44;;;0.26;
39083;BME280;24834;44.444;26.098;2024-01-10T09:00:20;102250.34;;;0.77;
39083;BME280;24834;44.444;26.098;2024-01-10T09:06:31;102242.25;;;1.05;
39083;BME280;24834;44.444;26.098;2024-01-10T09:12:36;102240.63;;;1.20;
39083;BME280;24834;44.444;26.098;2024-01-10T09:18:40;102230.75;;;1.32;
39083;BME280;24834;44.444;26.098;2024-01-10T09:24:43;102221.44;;;1.45;
39083;BME280;24834;44.444;26.098;2024-01-10T09:30:47;102233.75;;;1.35;
39083;BME280;24834;44.444;26.098;2024-01-10T09:36:52;102210.13;;;1.38;
39083;BME280;24834;44.444;26.098;2024-01-10T09:42:57;102202.25;;;1.23;
39083;BME280;24834;44.444;26.098;2024-01-10T09:48:59;102201.69;;;1.52;
39083;BME280;24834;44.444;26.098;2024-01-10T09:55:02;102196.56;;;1.98;
39083;BME280;24834;44.444;26.098;2024-01-10T10:01:06;102178.31;;;2.14;
39083;BME280;24834;44.444;26.098;2024-01-10T10:07:09;102179.19;;;2.29;
39083;BME280;24834;44.444;26.098;2024-01-10T10:13:24;102175.34;;;2.63;
39083;BME280;24834;44.444;26.098;2024-01-10T10:19:28;102160.88;;;2.45;
39083;BME280;24834;44.444;26.098;2024-01-10T10:25:44;102163.84;;;2.42;
39083;BME280;24834;44.444;26.098;2024-01-10T10:31:48;102151.38;;;2.90;
39083;BME280;24834;44.444;26.098;2024-01-10T10:37:52;102140.16;;;2.75;
39083;BME280;24834;44.444;26.098;2024-01-10T10:43:57;102128.59;;;2.48;
39083;BME280;24834;44.444;26.098;2024-01-10T10:50:03;102131.66;;;2.81;
39083;BME280;24834;44.444;26.098;2024-01-10T10:56:06;102108.91;;;3.12;
39083;BME280;24834;44.444;26.098;2024-01-10T11:02:10;102112.84;;;2.93;
39083;BME280;24834;44.444;26.098;2024-01-10T11:08:16;102095.03;;;2.76;
39083;BME280;24834;44.444;26.098;2024-01-10T11:26:46;102087.09;;;3.28;
39083;BME280;24834;44.444;26.098;2024-01-10T11:32:49;102086.06;;;3.44;
39083;BME280;24834;44.444;26.098;2024-01-10T11:45:01;102072.94;;;3.94;
39083;BME280;24834;44.444;26.098;2024-01-10T11:51:05;102057.97;;;4.03;
39083;BME280;24834;44.444;26.098;2024-01-10T11:57:11;102053.78;;;4.36;
39083;BME280;24834;44.444;26.098;2024-01-10T12:03:14;102047.63;;;4.09;
39083;BME280;24834;44.444;26.098;2024-01-10T12:09:24;102048.00;;;4.34;
39083;BME280;24834;44.444;26.098;2024-01-10T12:15:27;102057.84;;;4.39;
39083;BME280;24834;44.444;26.098;2024-01-10T12:21:32;102041.00;;;4.41;
39083;BME280;24834;44.444;26.098;2024-01-10T12:27:35;102049.22;;;4.79;
39083;BME280;24834;44.444;26.098;2024-01-10T12:33:38;102042.97;;;4.67;
39083;BME280;24834;44.444;26.098;2024-01-10T12:39:43;102034.41;;;4.45;
39083;BME280;24834;44.444;26.098;2024-01-10T12:45:46;102038.13;;;4.64;
39083;BME280;24834;44.444;26.098;2024-01-10T12:51:49;102035.00;;;4.41;
39083;BME280;24834;44.444;26.098;2024-01-10T12:57:52;102032.38;;;4.75;
39083;BME280;24834;44.444;26.098;2024-01-10T13:03:55;102030.38;;;4.84;
39083;BME280;24834;44.444;26.098;2024-01-10T13:09:58;102015.38;;;4.38;
39083;BME280;24834;44.444;26.098;2024-01-10T13:16:01;102023.63;;;4.48;
39083;BME280;24834;44.444;26.098;2024-01-10T13:22:09;102018.16;;;4.37;
39083;BME280;24834;44.444;26.098;2024-01-10T13:28:11;102018.47;;;4.20;
39083;BME280;24834;44.444;26.098;2024-01-10T13:34:16;102015.84;;;3.86;
39083;BME280;24834;44.444;26.098;2024-01-10T13:40:19;102019.75;;;4.03;
39083;BME280;24834;44.444;26.098;2024-01-10T13:46:26;102016.72;;;4.00;
39083;BME280;24834;44.444;26.098;2024-01-10T13:52:35;102002.59;;;4.15;
39083;BME280;24834;44.444;26.098;2024-01-10T13:58:38;102006.97;;;3.80;
39083;BME280;24834;44.444;26.098;2024-01-10T14:04:41;102008.16;;;3.78;
39083;BME280;24834;44.444;26.098;2024-01-10T14:10:44;102011.53;;;3.72;
39083;BME280;24834;44.444;26.098;2024-01-10T14:16:49;102009.88;;;3.43;
39083;BME280;24834;44.444;26.098;2024-01-10T14:22:52;102009.56;;;3.10;
39083;BME280;24834;44.444;26.098;2024-01-10T14:28:55;102009.28;;;3.05;
39083;BME280;24834;44.444;26.098;2024-01-10T14:34:59;102012.97;;;2.96;
39083;BME280;24834;44.444;26.098;2024-01-10T14:41:04;102009.00;;;2.79;
39083;BME280;24834;44.444;26.098;2024-01-10T14:47:08;102003.34;;;2.90;
39083;BME280;24834;44.444;26.098;2024-01-10T14:53:15;102002.81;;;2.65;
39083;BME280;24834;44.444;26.098;2024-01-10T14:59:19;101997.63;;;2.50;
39083;BME280;24834;44.444;26.098;2024-01-10T15:05:40;101994.84;;;2.67;
39083;BME280;24834;44.444;26.098;2024-01-10T15:11:43;101992.69;;;2.85;
39083;BME280;24834;44.444;26.098;2024-01-10T15:17:45;101997.16;;;2.76;
39083;BME280;24834;44.444;26.098;2024-01-10T15:23:48;102002.75;;;2.59;
39083;BME280;24834;44.444;26.098;2024-01-10T15:29:50;102002.25;;;2.70;
39083;BME280;24834;44.444;26.098;2024-01-10T15:36:04;101996.38;;;2.46;
39083;BME280;24834;44.444;26.098;2024-01-10T15:42:06;102008.28;;;2.26;
39083;BME280;24834;44.444;26.098;2024-01-10T15:48:11;102002.22;;;2.19;
39083;BME280;24834;44.444;26.098;2024-01-10T15:54:16;102006.53;;;2.04;
39083;BME280;24834;44.444;26.098;2024-01-10T16:00:19;102008.50;;;2.02;
39083;BME280;24834;44.444;26.098;2024-01-10T16:06:22;102008.06;;;1.98;
39083;BME280;24834;44.444;26.098;2024-01-10T16:12:24;102011.50;;;1.91;
39083;BME280;24834;44.444;26.098;2024-01-10T16:18:27;102012.66;;;2.11;
39083;BME280;24834;44.444;26.098;2024-01-10T16:24:30;102014.84;;;1.99;
39083;BME280;24834;44.444;26.098;2024-01-10T16:30:33;102029.84;;;2.12;
39083;BME280;24834;44.444;26.098;2024-01-10T16:36:36;102026.53;;;1.81;
39083;BME280;24834;44.444;26.098;2024-01-10T16:42:38;102026.47;;;1.89;
39083;BME280;24834;44.444;26.098;2024-01-10T16:48:43;102035.44;;;2.01;
39083;BME280;24834;44.444;26.098;2024-01-10T16:54:46;102035.72;;;2.06;
39083;BME280;24834;44.444;26.098;2024-01-10T17:00:49;102032.53;;;1.58;
39083;BME280;24834;44.444;26.098;2024-01-10T17:06:53;102036.13;;;1.49;
39083;BME280;24834;44.444;26.098;2024-01-10T17:12:55;102032.97;;;1.39;
39083;BME280;24834;44.444;26.098;2024-01-10T17:18:59;102035.03;;;1.44;
39083;BME280;24834;44.444;26.098;2024-01-10T17:25:02;102034.66;;;1.32;
39083;BME280;24834;44.444;26.098;2024-01-10T17:31:05;102027.13;;;1.37;
39083;BME280;24834;44.444;26.098;2024-01-10T17:37:07;102026.25;;;1.22;
39083;BME280;24834;44.444;26.098;2024-01-10T17:43:09;102020.63;;;1.41;
39083;BME280;24834;44.444;26.098;2024-01-10T17:49:12;102028.22;;;1.20;
39083;BME280;24834;44.444;26.098;2024-01-10T17:55:14;102016.84;;;1.29;
39083;BME280;24834;44.444;26.098;2024-01-10T18:01:17;102018.94;;;0.95;
39083;BME280;24834;44.444;26.098;2024-01-10T18:07:24;102012.50;;;0.91;
39083;BME280;24834;44.444;26.098;2024-01-10T18:13:27;102013.41;;;0.98;
39083;BME280;24834;44.444;26.098;2024-01-10T18:19:31;102002.19;;;1.13;
39083;BME280;24834;44.444;26.098;2024-01-10T18:25:35;101996.63;;;0.94;
39083;BME280;24834;44.444;26.098;2024-01-10T18:31:41;101990.53;;;0.78;
39083;BME280;24834;44.444;26.098;2024-01-10T18:37:43;101983.81;;;0.53;
39083;BME280;24834;44.444;26.098;2024-01-10T18:43:48;101978.25;;;0.72;
39083;BME280;24834;44.444;26.098;2024-01-10T18:49:51;101985.84;;;0.27;
39083;BME280;24834;44.444;26.098;2024-01-10T18:55:54;101969.72;;;0.56;
39083;BME280;24834;44.444;26.098;2024-01-10T19:02:00;101977.94;;;0.67;
39083;BME280;24834;44.444;26.098;2024-01-10T19:08:04;101966.78;;;0.28;
39083;BME280;24834;44.444;26.098;2024-01-10T19:14:06;101961.88;;;0.41;
39083;BME280;24834;44.444;26.098;2024-01-10T19:20:10;101965.00;;;0.67;
39083;BME280;24834;44.444;26.098;2024-01-10T19:26:22;101969.34;;;0.28;
39083;BME280;24834;44.444;26.098;2024-01-10T19:32:25;101969.06;;;-0.02;
39083;BME280;24834;44.444;26.098;2024-01-10T19:38:27;101979.38;;;0.23;
39083;BME280;24834;44.444;26.098;2024-01-10T19:44:31;101976.94;;;0.29;
39083;BME280;24834;44.444;26.098;2024-01-10T19:50:34;101977.63;;;0.15;
39083;BME280;24834;44.444;26.098;2024-01-10T19:56:37;101975.50;;;-0.30;
39083;BME280;24834;44.444;26.098;2024-01-10T20:02:39;101964.88;;;-0.27;
39083;BME280;24834;44.444;26.098;2024-01-10T20:08:42;101973.75;;;-0.05;
39083;BME280;24834;44.444;26.098;2024-01-10T20:14:45;101969.88;;;-0.17;
39083;BME280;24834;44.444;26.098;2024-01-10T20:20:47;101963.59;;;-0.15;
39083;BME280;24834;44.444;26.098;2024-01-10T20:26:51;101959.19;;;0.02;
39083;BME280;24834;44.444;26.098;2024-01-10T20:32:53;101968.25;;;-0.02;
39083;BME280;24834;44.444;26.098;2024-01-10T20:38:56;101969.69;;;0.09;
39083;BME280;24834;44.444;26.098;2024-01-10T20:44:59;101977.44;;;0.00;
39083;BME280;24834;44.444;26.098;2024-01-10T20:51:01;101973.59;;;-0.20;
39083;BME280;24834;44.444;26.098;2024-01-10T20:57:04;101977.13;;;-0.29;
39083;BME280;24834;44.444;26.098;2024-01-10T21:03:07;101974.72;;;-0.30;
39083;BME280;24834;44.444;26.098;2024-01-10T21:09:09;101970.19;;;-0.28;
39083;BME280;24834;44.444;26.098;2024-01-10T21:15:13;101965.81;;;-0.44;
39083;BME280;24834;44.444;26.098;2024-01-10T21:21:18;101960.44;;;-0.59;
39083;BME280;24834;44.444;26.098;2024-01-10T21:27:21;101959.34;;;-0.56;
39083;BME280;24834;44.444;26.098;2024-01-10T21:33:23;101952.56;;;-0.57;
39083;BME280;24834;44.444;26.098;2024-01-10T21:39:26;101938.00;;;-0.74;
39083;BME280;24834;44.444;26.098;2024-01-10T21:45:28;101936.25;;;-0.58;
39083;BME280;24834;44.444;26.098;2024-01-10T21:51:34;101940.28;;;-0.55;
39083;BME280;24834;44.444;26.098;2024-01-10T21:57:36;101935.72;;;-0.77;
39083;BME280;24834;44.444;26.098;2024-01-10T22:03:38;101921.22;;;-0.70;
39083;BME280;24834;44.444;26.098;2024-01-10T22:09:41;101913.16;;;-0.75;
39083;BME280;24834;44.444;26.098;2024-01-10T22:15:43;101910.56;;;-0.59;
39083;BME280;24834;44.444;26.098;2024-01-10T22:21:46;101897.50;;;-0.33;
39083;BME280;24834;44.444;26.098;2024-01-10T22:27:48;101888.97;;;-0.26;
39083;BME280;24834;44.444;26.098;2024-01-10T22:33:51;101885.09;;;-0.62;
39083;BME280;24834;44.444;26.098;2024-01-10T22:39:53;101873.16;;;-0.55;
39083;BME280;24834;44.444;26.098;2024-01-10T22:45:58;101875.56;;;-0.46;
39083;BME280;24834;44.444;26.098;2024-01-10T22:52:00;101880.53;;;-0.60;
39083;BME280;24834;44.444;26.098;2024-01-10T22:58:02;101866.16;;;-0.79;
39083;BME280;24834;44.444;26.098;2024-01-10T23:04:05;101872.16;;;-0.70;
39083;BME280;24834;44.444;26.098;2024-01-10T23:10:07;101854.69;;;-1.09;
39083;BME280;24834;44.444;26.098;2024-01-10T23:16:10;101856.94;;;-1.14;
39083;BME280;24834;44.444;26.098;2024-01-10T23:22:12;101842.56;;;-1.25;
39083;BME280;24834;44.444;26.098;2024-01-10T23:28:16;101846.63;;;-1.06;
39083;BME280;24834;44.444;26.098;2024-01-10T23:34:18;101846.16;;;-0.93;
39083;BME280;24834;44.444;26.098;2024-01-10T23:40:24;101843.09;;;-0.97;
39083;BME280;24834;44.444;26.098;2024-01-10T23:46:26;101826.78;;;-1.13;
39083;BME280;24834;44.444;26.098;2024-01-10T23:52:30;101826.50;;;-0.94;
39083;BME280;24834;44.444;26.098;2024-01-10T23:58:33;101816.31;;;-1.12;
